This is the latest recevied weather packets stored in our database for station/object DH1NAI-6. If no packets are shown the sender has not sent any weather packets the latest 10 day(s).
| Time | Temp. | Humidity | Pressure | Rain* | Wind** | Luminosity | Snow |
|---|---|---|---|---|---|---|---|
| 1777626803 | 15° C | 54% | 1025.8 hPa | 0 mm | - | 183 W/m² | - |
| 1777626196 | 14.44° C | 52% | 1026 hPa | 0 mm | - | 184 W/m² | - |
| 1777625587 | 13.89° C | 54% | 1026 hPa | 0 mm | - | 182 W/m² | - |
| 1777624980 | 13.89° C | 55% | 1026 hPa | 0 mm | - | 181 W/m² | - |
| 1777624371 | 13.89° C | 54% | 1025.9 hPa | 0 mm | - | 170 W/m² | - |
| 1777623764 | 13.89° C | 55% | 1026.1 hPa | 0 mm | - | 169 W/m² | - |
| 1777623151 | 13.33° C | 57% | 1025.8 hPa | 0 mm | - | 168 W/m² | - |
| 1777622548 | 13.33° C | 57% | 1026.1 hPa | 0 mm | - | 156 W/m² | - |
| 1777621939 | 12.78° C | 57% | 1025.9 hPa | 0 mm | - | 143 W/m² | - |
| 1777621315 | 12.22° C | 58% | 1025.8 hPa | 0 mm | - | 128 W/m² | - |
| 1777620692 | 12.22° C | 56% | 1026 hPa | 0 mm | - | 112 W/m² | - |
| 1777620083 | 11.67° C | 58% | 1025.7 hPa | 0 mm | - | 19 W/m² | - |
| 1777619476 | 11.67° C | 58% | 1026 hPa | 0 mm | - | 95 W/m² | - |
| 1777618867 | 11.67° C | 56% | 1025.8 hPa | 0 mm | - | 88 W/m² | - |
| 1777618260 | 11.67° C | 57% | 1025.8 hPa | 0 mm | - | 83 W/m² | - |
| 1777617651 | 11.11° C | 59% | 1025.9 hPa | 0 mm | - | 16 W/m² | - |
| 1777617044 | 11.11° C | 61% | 1025.4 hPa | 0 mm | - | 14 W/m² | - |
| 1777616431 | 10.56° C | 62% | 1025.6 hPa | 0 mm | - | 63 W/m² | - |
| 1777615828 | 10° C | 64% | 1025.7 hPa | 0 mm | - | 13 W/m² | - |
| 1777615219 | 7.78° C | 74% | 1025.7 hPa | 0 mm | - | 14 W/m² | - |
| 1777614595 | 6.67° C | 76% | 1025.5 hPa | 0 mm | - | 12 W/m² | - |
| 1777613972 | 5.56° C | 81% | 1025.7 hPa | 0 mm | - | 25 W/m² | - |
| 1777613363 | 3.89° C | 91% | 1025.6 hPa | 0 mm | - | 11 W/m² | - |
| 1777612756 | 2.22° C | 96% | 1025.7 hPa | 0 mm | - | 10 W/m² | - |
| 1777612147 | 1.67° C | 98% | 1025.4 hPa | 0 mm | - | 7 W/m² | - |
* Rain latest hour (hover to see other rain measurements)
** Current wind speed in m/s (hover to see current wind gust speed)